sensor_id;sensor_type;location;lat;lon;timestamp;P1;durP1;ratioP1;P2;durP2;ratioP2
55292;SDS011;41157;53.560;10.098;2023-03-21T00:00:26;13.00;;;11.60;;
55292;SDS011;41157;53.560;10.098;2023-03-21T00:02:53;14.33;;;12.40;;
55292;SDS011;41157;53.560;10.098;2023-03-21T00:05:20;16.53;;;13.13;;
55292;SDS011;41157;53.560;10.098;2023-03-21T00:07:49;14.53;;;13.03;;
55292;SDS011;41157;53.560;10.098;2023-03-21T00:10:16;15.07;;;13.07;;
55292;SDS011;41157;53.560;10.098;2023-03-21T00:12:43;14.13;;;12.60;;
55292;SDS011;41157;53.560;10.098;2023-03-21T00:15:19;15.80;;;13.77;;
55292;SDS011;41157;53.560;10.098;2023-03-21T00:17:46;14.87;;;12.93;;
55292;SDS011;41157;53.560;10.098;2023-03-21T00:20:15;16.03;;;12.70;;
55292;SDS011;41157;53.560;10.098;2023-03-21T00:22:42;16.27;;;13.40;;
55292;SDS011;41157;53.560;10.098;2023-03-21T00:25:10;14.83;;;12.80;;
55292;SDS011;41157;53.560;10.098;2023-03-21T00:27:37;16.03;;;14.33;;
55292;SDS011;41157;53.560;10.098;2023-03-21T00:30:05;16.47;;;14.77;;
55292;SDS011;41157;53.560;10.098;2023-03-21T00:32:32;17.33;;;14.67;;
55292;SDS011;41157;53.560;10.098;2023-03-21T00:34:59;17.07;;;15.07;;
55292;SDS011;41157;53.560;10.098;2023-03-21T00:37:26;17.07;;;15.03;;
55292;SDS011;41157;53.560;10.098;2023-03-21T00:39:53;16.67;;;14.80;;
55292;SDS011;41157;53.560;10.098;2023-03-21T00:42:22;16.50;;;14.70;;
55292;SDS011;41157;53.560;10.098;2023-03-21T00:44:49;18.67;;;16.67;;
55292;SDS011;41157;53.560;10.098;2023-03-21T00:47:16;17.50;;;15.70;;
55292;SDS011;41157;53.560;10.098;2023-03-21T00:49:43;20.10;;;16.13;;
55292;SDS011;41157;53.560;10.098;2023-03-21T00:52:10;19.07;;;17.03;;
55292;SDS011;41157;53.560;10.098;2023-03-21T00:54:37;17.87;;;15.93;;
55292;SDS011;41157;53.560;10.098;2023-03-21T00:57:04;19.20;;;17.27;;
55292;SDS011;41157;53.560;10.098;2023-03-21T00:59:32;20.07;;;17.17;;
55292;SDS011;41157;53.560;10.098;2023-03-21T01:01:59;19.87;;;17.60;;
55292;SDS011;41157;53.560;10.098;2023-03-21T01:04:31;20.47;;;18.27;;
55292;SDS011;41157;53.560;10.098;2023-03-21T01:06:59;23.53;;;18.77;;
55292;SDS011;41157;53.560;10.098;2023-03-21T01:09:26;21.73;;;19.37;;
55292;SDS011;41157;53.560;10.098;2023-03-21T01:11:54;20.87;;;18.67;;
55292;SDS011;41157;53.560;10.098;2023-03-21T01:14:22;23.07;;;19.37;;
55292;SDS011;41157;53.560;10.098;2023-03-21T01:16:51;23.80;;;20.40;;
55292;SDS011;41157;53.560;10.098;2023-03-21T01:19:19;22.77;;;19.70;;
55292;SDS011;41157;53.560;10.098;2023-03-21T01:21:46;25.27;;;21.23;;
55292;SDS011;41157;53.560;10.098;2023-03-21T01:24:13;23.73;;;20.63;;
55292;SDS011;41157;53.560;10.098;2023-03-21T01:26:40;23.07;;;20.57;;
55292;SDS011;41157;53.560;10.098;2023-03-21T01:29:07;22.60;;;20.20;;
55292;SDS011;41157;53.560;10.098;2023-03-21T01:31:35;26.97;;;20.97;;
55292;SDS011;41157;53.560;10.098;2023-03-21T01:34:03;26.73;;;22.17;;
55292;SDS011;41157;53.560;10.098;2023-03-21T01:36:30;26.80;;;23.90;;
55292;SDS011;41157;53.560;10.098;2023-03-21T01:38:57;26.60;;;23.37;;
55292;SDS011;41157;53.560;10.098;2023-03-21T01:41:25;28.63;;;24.20;;
55292;SDS011;41157;53.560;10.098;2023-03-21T01:43:53;25.47;;;22.60;;
55292;SDS011;41157;53.560;10.098;2023-03-21T01:46:25;27.27;;;23.90;;
55292;SDS011;41157;53.560;10.098;2023-03-21T01:48:54;27.47;;;23.23;;
55292;SDS011;41157;53.560;10.098;2023-03-21T01:51:24;29.33;;;25.10;;
55292;SDS011;41157;53.560;10.098;2023-03-21T01:53:52;30.27;;;24.23;;
55292;SDS011;41157;53.560;10.098;2023-03-21T01:56:22;29.90;;;25.83;;
55292;SDS011;41157;53.560;10.098;2023-03-21T01:58:49;30.03;;;24.60;;
55292;SDS011;41157;53.560;10.098;2023-03-21T02:01:19;28.53;;;25.43;;
55292;SDS011;41157;53.560;10.098;2023-03-21T02:03:47;30.93;;;25.67;;
55292;SDS011;41157;53.560;10.098;2023-03-21T02:06:19;30.17;;;26.30;;
55292;SDS011;41157;53.560;10.098;2023-03-21T02:08:49;30.00;;;25.57;;
55292;SDS011;41157;53.560;10.098;2023-03-21T02:11:16;31.77;;;25.70;;
55292;SDS011;41157;53.560;10.098;2023-03-21T02:13:44;30.47;;;25.53;;
55292;SDS011;41157;53.560;10.098;2023-03-21T02:16:11;29.53;;;24.80;;
55292;SDS011;41157;53.560;10.098;2023-03-21T02:18:40;30.10;;;24.50;;
55292;SDS011;41157;53.560;10.098;2023-03-21T02:24:16;28.53;;;24.10;;
55292;SDS011;41157;53.560;10.098;2023-03-21T02:26:57;27.93;;;24.27;;
55292;SDS011;41157;53.560;10.098;2023-03-21T02:29:29;28.43;;;24.60;;
55292;SDS011;41157;53.560;10.098;2023-03-21T02:32:02;29.37;;;24.93;;
55292;SDS011;41157;53.560;10.098;2023-03-21T02:37:29;29.53;;;24.60;;
55292;SDS011;41157;53.560;10.098;2023-03-21T02:40:00;27.50;;;23.83;;
55292;SDS011;41157;53.560;10.098;2023-03-21T02:42:33;27.67;;;24.07;;
55292;SDS011;41157;53.560;10.098;2023-03-21T02:45:04;26.63;;;23.53;;
55292;SDS011;41157;53.560;10.098;2023-03-21T02:47:33;27.90;;;24.20;;
55292;SDS011;41157;53.560;10.098;2023-03-21T02:50:04;29.80;;;25.17;;
55292;SDS011;41157;53.560;10.098;2023-03-21T02:52:35;28.50;;;24.60;;
55292;SDS011;41157;53.560;10.098;2023-03-21T02:55:03;26.73;;;23.83;;
55292;SDS011;41157;53.560;10.098;2023-03-21T02:57:31;29.57;;;25.37;;
55292;SDS011;41157;53.560;10.098;2023-03-21T02:59:59;28.10;;;24.33;;
55292;SDS011;41157;53.560;10.098;2023-03-21T03:02:32;27.33;;;23.87;;
55292;SDS011;41157;53.560;10.098;2023-03-21T03:05:00;29.30;;;25.47;;
55292;SDS011;41157;53.560;10.098;2023-03-21T03:07:30;26.93;;;24.03;;
55292;SDS011;41157;53.560;10.098;2023-03-21T03:10:10;29.47;;;24.93;;
55292;SDS011;41157;53.560;10.098;2023-03-21T03:12:40;26.83;;;23.57;;
55292;SDS011;41157;53.560;10.098;2023-03-21T03:15:11;28.50;;;25.40;;
55292;SDS011;41157;53.560;10.098;2023-03-21T03:17:45;27.43;;;24.40;;
55292;SDS011;41157;53.560;10.098;2023-03-21T03:20:17;28.23;;;24.37;;
55292;SDS011;41157;53.560;10.098;2023-03-21T03:22:48;27.63;;;24.63;;
55292;SDS011;41157;53.560;10.098;2023-03-21T03:25:21;29.97;;;25.23;;
55292;SDS011;41157;53.560;10.098;2023-03-21T03:27:49;27.60;;;24.13;;
55292;SDS011;41157;53.560;10.098;2023-03-21T03:30:18;29.13;;;24.00;;
55292;SDS011;41157;53.560;10.098;2023-03-21T03:32:46;27.87;;;24.50;;
55292;SDS011;41157;53.560;10.098;2023-03-21T03:35:15;28.53;;;24.93;;
55292;SDS011;41157;53.560;10.098;2023-03-21T03:37:43;27.50;;;24.50;;
55292;SDS011;41157;53.560;10.098;2023-03-21T03:40:12;29.33;;;24.30;;
55292;SDS011;41157;53.560;10.098;2023-03-21T03:42:44;30.07;;;24.40;;
55292;SDS011;41157;53.560;10.098;2023-03-21T03:45:12;29.87;;;25.40;;
55292;SDS011;41157;53.560;10.098;2023-03-21T03:47:42;29.73;;;25.47;;
55292;SDS011;41157;53.560;10.098;2023-03-21T03:50:12;31.70;;;25.40;;
55292;SDS011;41157;53.560;10.098;2023-03-21T03:52:41;31.67;;;26.17;;
55292;SDS011;41157;53.560;10.098;2023-03-21T03:55:09;32.30;;;26.27;;
55292;SDS011;41157;53.560;10.098;2023-03-21T03:57:37;32.80;;;26.43;;
55292;SDS011;41157;53.560;10.098;2023-03-21T04:00:06;29.27;;;24.73;;
55292;SDS011;41157;53.560;10.098;2023-03-21T04:02:37;30.87;;;25.30;;
55292;SDS011;41157;53.560;10.098;2023-03-21T04:05:04;31.53;;;26.43;;
55292;SDS011;41157;53.560;10.098;2023-03-21T04:07:31;30.20;;;25.97;;
55292;SDS011;41157;53.560;10.098;2023-03-21T04:09:58;34.10;;;26.53;;
55292;SDS011;41157;53.560;10.098;2023-03-21T04:12:25;35.13;;;26.07;;
55292;SDS011;41157;53.560;10.098;2023-03-21T04:14:52;29.97;;;26.33;;
55292;SDS011;41157;53.560;10.098;2023-03-21T04:17:21;34.83;;;27.50;;
55292;SDS011;41157;53.560;10.098;2023-03-21T04:19:48;33.27;;;26.00;;
55292;SDS011;41157;53.560;10.098;2023-03-21T04:22:15;30.70;;;25.47;;
55292;SDS011;41157;53.560;10.098;2023-03-21T04:24:42;32.50;;;26.27;;
55292;SDS011;41157;53.560;10.098;2023-03-21T04:27:09;29.47;;;25.83;;
55292;SDS011;41157;53.560;10.098;2023-03-21T04:29:37;33.40;;;26.70;;
55292;SDS011;41157;53.560;10.098;2023-03-21T04:32:04;33.17;;;26.67;;
55292;SDS011;41157;53.560;10.098;2023-03-21T04:34:45;31.70;;;26.57;;
55292;SDS011;41157;53.560;10.098;2023-03-21T04:37:14;34.83;;;27.50;;
55292;SDS011;41157;53.560;10.098;2023-03-21T04:39:41;32.33;;;26.53;;
55292;SDS011;41157;53.560;10.098;2023-03-21T04:42:08;32.80;;;25.83;;
55292;SDS011;41157;53.560;10.098;2023-03-21T04:44:35;35.00;;;28.03;;
55292;SDS011;41157;53.560;10.098;2023-03-21T04:47:02;30.87;;;24.67;;
55292;SDS011;41157;53.560;10.098;2023-03-21T04:49:29;32.63;;;26.20;;
55292;SDS011;41157;53.560;10.098;2023-03-21T04:51:57;32.33;;;26.07;;
55292;SDS011;41157;53.560;10.098;2023-03-21T04:54:25;30.17;;;26.23;;
55292;SDS011;41157;53.560;10.098;2023-03-21T04:56:52;31.93;;;26.10;;
55292;SDS011;41157;53.560;10.098;2023-03-21T04:59:19;32.70;;;26.33;;
55292;SDS011;41157;53.560;10.098;2023-03-21T05:01:46;34.40;;;25.87;;
55292;SDS011;41157;53.560;10.098;2023-03-21T05:04:14;30.37;;;25.80;;
55292;SDS011;41157;53.560;10.098;2023-03-21T05:06:41;30.70;;;25.70;;
55292;SDS011;41157;53.560;10.098;2023-03-21T05:09:10;32.20;;;26.70;;
55292;SDS011;41157;53.560;10.098;2023-03-21T05:11:37;33.23;;;27.17;;
55292;SDS011;41157;53.560;10.098;2023-03-21T05:14:05;32.17;;;26.90;;
55292;SDS011;41157;53.560;10.098;2023-03-21T05:16:32;34.90;;;26.47;;
55292;SDS011;41157;53.560;10.098;2023-03-21T05:19:00;31.90;;;26.50;;
55292;SDS011;41157;53.560;10.098;2023-03-21T05:21:28;32.90;;;27.37;;
55292;SDS011;41157;53.560;10.098;2023-03-21T05:24:05;35.37;;;28.10;;
55292;SDS011;41157;53.560;10.098;2023-03-21T05:26:37;32.43;;;26.67;;
55292;SDS011;41157;53.560;10.098;2023-03-21T05:29:04;30.27;;;26.93;;
55292;SDS011;41157;53.560;10.098;2023-03-21T05:31:31;33.70;;;26.70;;
55292;SDS011;41157;53.560;10.098;2023-03-21T05:33:58;33.20;;;27.60;;
55292;SDS011;41157;53.560;10.098;2023-03-21T05:36:25;32.70;;;26.53;;
55292;SDS011;41157;53.560;10.098;2023-03-21T05:38:53;35.40;;;28.17;;
55292;SDS011;41157;53.560;10.098;2023-03-21T05:41:20;35.17;;;27.40;;
55292;SDS011;41157;53.560;10.098;2023-03-21T05:43:48;32.73;;;27.53;;
55292;SDS011;41157;53.560;10.098;2023-03-21T05:46:15;32.13;;;26.77;;
55292;SDS011;41157;53.560;10.098;2023-03-21T05:48:42;35.50;;;27.90;;
55292;SDS011;41157;53.560;10.098;2023-03-21T05:51:09;33.87;;;27.90;;
55292;SDS011;41157;53.560;10.098;2023-03-21T05:53:36;33.27;;;27.00;;
55292;SDS011;41157;53.560;10.098;2023-03-21T05:56:03;33.87;;;27.03;;
55292;SDS011;41157;53.560;10.098;2023-03-21T05:58:30;33.47;;;28.47;;
55292;SDS011;41157;53.560;10.098;2023-03-21T06:00:59;37.27;;;28.67;;
55292;SDS011;41157;53.560;10.098;2023-03-21T06:03:29;35.23;;;28.23;;
55292;SDS011;41157;53.560;10.098;2023-03-21T06:05:56;37.70;;;28.43;;
55292;SDS011;41157;53.560;10.098;2023-03-21T06:08:23;34.63;;;28.23;;
55292;SDS011;41157;53.560;10.098;2023-03-21T06:10:50;34.37;;;27.70;;
55292;SDS011;41157;53.560;10.098;2023-03-21T06:13:17;33.50;;;27.50;;
55292;SDS011;41157;53.560;10.098;2023-03-21T06:15:44;32.10;;;26.40;;
55292;SDS011;41157;53.560;10.098;2023-03-21T06:18:12;33.37;;;27.00;;
55292;SDS011;41157;53.560;10.098;2023-03-21T06:20:39;31.50;;;25.87;;
55292;SDS011;41157;53.560;10.098;2023-03-21T06:23:06;34.50;;;27.10;;
55292;SDS011;41157;53.560;10.098;2023-03-21T06:25:33;32.83;;;26.53;;
55292;SDS011;41157;53.560;10.098;2023-03-21T06:28:00;35.67;;;25.73;;
55292;SDS011;41157;53.560;10.098;2023-03-21T06:30:27;31.87;;;25.60;;
55292;SDS011;41157;53.560;10.098;2023-03-21T06:32:54;30.93;;;26.13;;
55292;SDS011;41157;53.560;10.098;2023-03-21T06:35:23;29.77;;;26.20;;
55292;SDS011;41157;53.560;10.098;2023-03-21T06:37:50;30.27;;;26.07;;
55292;SDS011;41157;53.560;10.098;2023-03-21T06:40:17;28.73;;;24.70;;
55292;SDS011;41157;53.560;10.098;2023-03-21T06:42:44;32.67;;;25.73;;
55292;SDS011;41157;53.560;10.098;2023-03-21T06:45:11;31.30;;;25.93;;
55292;SDS011;41157;53.560;10.098;2023-03-21T06:47:38;32.63;;;25.87;;
55292;SDS011;41157;53.560;10.098;2023-03-21T06:50:05;33.97;;;26.00;;
55292;SDS011;41157;53.560;10.098;2023-03-21T06:52:33;33.80;;;27.37;;
55292;SDS011;41157;53.560;10.098;2023-03-21T06:55:00;36.53;;;27.53;;
55292;SDS011;41157;53.560;10.098;2023-03-21T06:57:27;34.20;;;27.40;;
55292;SDS011;41157;53.560;10.098;2023-03-21T06:59:54;34.10;;;27.27;;
55292;SDS011;41157;53.560;10.098;2023-03-21T07:02:21;32.07;;;27.30;;
55292;SDS011;41157;53.560;10.098;2023-03-21T07:04:48;34.93;;;26.87;;
55292;SDS011;41157;53.560;10.098;2023-03-21T07:07:15;31.60;;;26.80;;
55292;SDS011;41157;53.560;10.098;2023-03-21T07:09:44;35.77;;;27.30;;
55292;SDS011;41157;53.560;10.098;2023-03-21T07:12:11;36.07;;;27.33;;
55292;SDS011;41157;53.560;10.098;2023-03-21T07:14:38;33.73;;;28.13;;
55292;SDS011;41157;53.560;10.098;2023-03-21T07:17:05;35.13;;;27.67;;
55292;SDS011;41157;53.560;10.098;2023-03-21T07:19:32;34.60;;;28.00;;
55292;SDS011;41157;53.560;10.098;2023-03-21T07:21:59;35.60;;;27.30;;
55292;SDS011;41157;53.560;10.098;2023-03-21T07:24:26;35.80;;;28.13;;
55292;SDS011;41157;53.560;10.098;2023-03-21T07:26:54;35.97;;;27.33;;
55292;SDS011;41157;53.560;10.098;2023-03-21T07:29:21;39.20;;;29.67;;
55292;SDS011;41157;53.560;10.098;2023-03-21T07:31:49;37.13;;;28.43;;
55292;SDS011;41157;53.560;10.098;2023-03-21T07:34:16;36.67;;;27.97;;
55292;SDS011;41157;53.560;10.098;2023-03-21T07:36:43;37.13;;;28.80;;
55292;SDS011;41157;53.560;10.098;2023-03-21T07:39:10;39.97;;;28.33;;
55292;SDS011;41157;53.560;10.098;2023-03-21T07:41:37;36.23;;;28.63;;
55292;SDS011;41157;53.560;10.098;2023-03-21T07:44:05;36.50;;;28.80;;
55292;SDS011;41157;53.560;10.098;2023-03-21T07:46:32;36.40;;;27.33;;
55292;SDS011;41157;53.560;10.098;2023-03-21T07:48:59;36.03;;;28.47;;
55292;SDS011;41157;53.560;10.098;2023-03-21T07:51:26;37.83;;;27.87;;
55292;SDS011;41157;53.560;10.098;2023-03-21T07:53:53;36.67;;;26.70;;
55292;SDS011;41157;53.560;10.098;2023-03-21T07:56:20;36.13;;;28.20;;
55292;SDS011;41157;53.560;10.098;2023-03-21T07:58:47;37.33;;;27.67;;
55292;SDS011;41157;53.560;10.098;2023-03-21T08:01:16;34.97;;;27.63;;
55292;SDS011;41157;53.560;10.098;2023-03-21T08:03:43;38.70;;;28.13;;
55292;SDS011;41157;53.560;10.098;2023-03-21T08:06:10;36.73;;;27.87;;
55292;SDS011;41157;53.560;10.098;2023-03-21T08:08:37;39.33;;;28.37;;
55292;SDS011;41157;53.560;10.098;2023-03-21T08:11:04;38.17;;;28.83;;
55292;SDS011;41157;53.560;10.098;2023-03-21T08:13:31;42.13;;;29.33;;
55292;SDS011;41157;53.560;10.098;2023-03-21T08:15:58;39.37;;;27.57;;
55292;SDS011;41157;53.560;10.098;2023-03-21T08:18:27;38.83;;;28.33;;
55292;SDS011;41157;53.560;10.098;2023-03-21T08:20:54;40.20;;;27.87;;
55292;SDS011;41157;53.560;10.098;2023-03-21T08:23:22;37.60;;;27.50;;
55292;SDS011;41157;53.560;10.098;2023-03-21T08:25:50;37.80;;;28.23;;
55292;SDS011;41157;53.560;10.098;2023-03-21T08:28:17;34.03;;;27.07;;
55292;SDS011;41157;53.560;10.098;2023-03-21T08:30:45;36.70;;;28.50;;
55292;SDS011;41157;53.560;10.098;2023-03-21T08:33:12;40.90;;;27.60;;
55292;SDS011;41157;53.560;10.098;2023-03-21T08:35:40;35.23;;;26.80;;
55292;SDS011;41157;53.560;10.098;2023-03-21T08:38:07;34.83;;;26.73;;
55292;SDS011;41157;53.560;10.098;2023-03-21T08:40:35;42.17;;;29.10;;
55292;SDS011;41157;53.560;10.098;2023-03-21T08:43:02;38.43;;;27.17;;
55292;SDS011;41157;53.560;10.098;2023-03-21T08:45:29;35.80;;;25.93;;
55292;SDS011;41157;53.560;10.098;2023-03-21T08:47:56;32.43;;;25.47;;
55292;SDS011;41157;53.560;10.098;2023-03-21T08:50:24;38.60;;;25.97;;
55292;SDS011;41157;53.560;10.098;2023-03-21T08:52:54;34.60;;;26.53;;
55292;SDS011;41157;53.560;10.098;2023-03-21T08:55:21;38.03;;;26.27;;
55292;SDS011;41157;53.560;10.098;2023-03-21T08:57:48;31.73;;;24.33;;
55292;SDS011;41157;53.560;10.098;2023-03-21T09:00:16;33.60;;;24.07;;
55292;SDS011;41157;53.560;10.098;2023-03-21T09:02:45;29.50;;;23.33;;
55292;SDS011;41157;53.560;10.098;2023-03-21T09:05:13;32.40;;;23.63;;
55292;SDS011;41157;53.560;10.098;2023-03-21T09:07:40;30.97;;;23.50;;
55292;SDS011;41157;53.560;10.098;2023-03-21T09:10:10;31.20;;;23.80;;
55292;SDS011;41157;53.560;10.098;2023-03-21T09:12:37;31.70;;;23.17;;
55292;SDS011;41157;53.560;10.098;2023-03-21T09:15:05;30.23;;;23.27;;
55292;SDS011;41157;53.560;10.098;2023-03-21T09:17:32;31.57;;;23.37;;
55292;SDS011;41157;53.560;10.098;2023-03-21T09:20:00;33.93;;;22.73;;
55292;SDS011;41157;53.560;10.098;2023-03-21T09:22:35;30.67;;;23.30;;
55292;SDS011;41157;53.560;10.098;2023-03-21T09:25:02;33.43;;;23.20;;
55292;SDS011;41157;53.560;10.098;2023-03-21T09:27:33;32.83;;;24.00;;
55292;SDS011;41157;53.560;10.098;2023-03-21T09:30:00;34.03;;;24.53;;
55292;SDS011;41157;53.560;10.098;2023-03-21T09:32:30;36.33;;;24.47;;
55292;SDS011;41157;53.560;10.098;2023-03-21T09:34:58;35.03;;;24.50;;
55292;SDS011;41157;53.560;10.098;2023-03-21T09:37:25;35.13;;;24.17;;
55292;SDS011;41157;53.560;10.098;2023-03-21T09:39:52;37.03;;;25.53;;
55292;SDS011;41157;53.560;10.098;2023-03-21T09:42:28;34.27;;;24.83;;
55292;SDS011;41157;53.560;10.098;2023-03-21T09:45:00;32.93;;;23.70;;
55292;SDS011;41157;53.560;10.098;2023-03-21T09:47:30;38.17;;;25.30;;
55292;SDS011;41157;53.560;10.098;2023-03-21T09:50:03;33.67;;;25.20;;
55292;SDS011;41157;53.560;10.098;2023-03-21T09:52:31;38.43;;;26.00;;
55292;SDS011;41157;53.560;10.098;2023-03-21T09:54:59;38.23;;;25.80;;
55292;SDS011;41157;53.560;10.098;2023-03-21T09:57:28;37.07;;;24.63;;
55292;SDS011;41157;53.560;10.098;2023-03-21T09:59:58;39.53;;;26.40;;
55292;SDS011;41157;53.560;10.098;2023-03-21T10:02:35;39.37;;;26.17;;
55292;SDS011;41157;53.560;10.098;2023-03-21T10:05:09;35.90;;;25.83;;
55292;SDS011;41157;53.560;10.098;2023-03-21T10:07:38;34.63;;;25.03;;
55292;SDS011;41157;53.560;10.098;2023-03-21T10:10:06;38.13;;;26.23;;
55292;SDS011;41157;53.560;10.098;2023-03-21T10:12:37;36.17;;;24.73;;
55292;SDS011;41157;53.560;10.098;2023-03-21T10:15:05;41.07;;;25.63;;
55292;SDS011;41157;53.560;10.098;2023-03-21T10:17:40;37.97;;;25.90;;
55292;SDS011;41157;53.560;10.098;2023-03-21T10:20:11;36.17;;;25.20;;
55292;SDS011;41157;53.560;10.098;2023-03-21T10:22:39;33.83;;;24.40;;
55292;SDS011;41157;53.560;10.098;2023-03-21T10:25:07;34.23;;;23.73;;
55292;SDS011;41157;53.560;10.098;2023-03-21T10:27:36;32.63;;;23.20;;
55292;SDS011;41157;53.560;10.098;2023-03-21T10:30:04;31.10;;;23.17;;
55292;SDS011;41157;53.560;10.098;2023-03-21T10:32:32;32.30;;;23.73;;
55292;SDS011;41157;53.560;10.098;2023-03-21T10:35:01;31.73;;;23.60;;
55292;SDS011;41157;53.560;10.098;2023-03-21T10:37:29;32.77;;;22.90;;
55292;SDS011;41157;53.560;10.098;2023-03-21T10:39:57;30.00;;;22.77;;
55292;SDS011;41157;53.560;10.098;2023-03-21T10:42:25;30.70;;;23.00;;
55292;SDS011;41157;53.560;10.098;2023-03-21T10:44:52;32.00;;;22.80;;
55292;SDS011;41157;53.560;10.098;2023-03-21T10:47:22;33.07;;;23.47;;
55292;SDS011;41157;53.560;10.098;2023-03-21T10:49:50;32.37;;;22.57;;
55292;SDS011;41157;53.560;10.098;2023-03-21T10:52:19;32.40;;;22.30;;
55292;SDS011;41157;53.560;10.098;2023-03-21T10:54:47;29.07;;;21.17;;
55292;SDS011;41157;53.560;10.098;2023-03-21T10:57:14;27.77;;;21.50;;
55292;SDS011;41157;53.560;10.098;2023-03-21T10:59:44;29.13;;;21.63;;
55292;SDS011;41157;53.560;10.098;2023-03-21T11:02:14;29.77;;;20.93;;
55292;SDS011;41157;53.560;10.098;2023-03-21T11:04:42;33.17;;;21.43;;
55292;SDS011;41157;53.560;10.098;2023-03-21T11:07:11;31.27;;;21.40;;
55292;SDS011;41157;53.560;10.098;2023-03-21T11:09:45;32.03;;;21.60;;
55292;SDS011;41157;53.560;10.098;2023-03-21T11:12:13;27.00;;;21.10;;
55292;SDS011;41157;53.560;10.098;2023-03-21T11:14:42;24.30;;;20.07;;
55292;SDS011;41157;53.560;10.098;2023-03-21T11:17:23;26.87;;;20.93;;
55292;SDS011;41157;53.560;10.098;2023-03-21T11:19:51;28.20;;;20.93;;
55292;SDS011;41157;53.560;10.098;2023-03-21T11:22:19;28.20;;;21.23;;
55292;SDS011;41157;53.560;10.098;2023-03-21T11:24:50;30.13;;;21.63;;
55292;SDS011;41157;53.560;10.098;2023-03-21T11:27:18;27.17;;;20.73;;
55292;SDS011;41157;53.560;10.098;2023-03-21T11:29:45;27.93;;;20.97;;
55292;SDS011;41157;53.560;10.098;2023-03-21T11:32:19;30.57;;;24.23;;
55292;SDS011;41157;53.560;10.098;2023-03-21T11:34:46;32.67;;;22.40;;
55292;SDS011;41157;53.560;10.098;2023-03-21T11:37:18;36.27;;;22.37;;
55292;SDS011;41157;53.560;10.098;2023-03-21T11:39:46;32.43;;;24.20;;
55292;SDS011;41157;53.560;10.098;2023-03-21T11:42:25;32.20;;;24.67;;
55292;SDS011;41157;53.560;10.098;2023-03-21T11:44:56;31.40;;;23.13;;
55292;SDS011;41157;53.560;10.098;2023-03-21T11:47:23;36.77;;;24.37;;
55292;SDS011;41157;53.560;10.098;2023-03-21T11:49:50;34.90;;;23.27;;
55292;SDS011;41157;53.560;10.098;2023-03-21T11:52:19;32.13;;;22.97;;
55292;SDS011;41157;53.560;10.098;2023-03-21T11:54:56;30.80;;;23.23;;
55292;SDS011;41157;53.560;10.098;2023-03-21T11:57:30;29.57;;;22.70;;
55292;SDS011;41157;53.560;10.098;2023-03-21T12:00:04;35.13;;;22.63;;
55292;SDS011;41157;53.560;10.098;2023-03-21T12:05:22;33.67;;;22.93;;
55292;SDS011;41157;53.560;10.098;2023-03-21T12:07:52;54.40;;;24.03;;
55292;SDS011;41157;53.560;10.098;2023-03-21T12:10:27;37.43;;;21.90;;
55292;SDS011;41157;53.560;10.098;2023-03-21T12:12:59;87.93;;;27.00;;
55292;SDS011;41157;53.560;10.098;2023-03-21T12:15:29;32.23;;;21.87;;
55292;SDS011;41157;53.560;10.098;2023-03-21T12:17:58;30.57;;;21.63;;
55292;SDS011;41157;53.560;10.098;2023-03-21T12:20:32;29.27;;;21.77;;
55292;SDS011;41157;53.560;10.098;2023-03-21T12:23:06;31.43;;;21.93;;
55292;SDS011;41157;53.560;10.098;2023-03-21T12:25:34;30.27;;;20.33;;
55292;SDS011;41157;53.560;10.098;2023-03-21T12:28:06;29.80;;;20.67;;
55292;SDS011;41157;53.560;10.098;2023-03-21T12:30:42;28.13;;;19.63;;
55292;SDS011;41157;53.560;10.098;2023-03-21T12:33:17;27.00;;;18.73;;
55292;SDS011;41157;53.560;10.098;2023-03-21T12:35:51;25.17;;;19.57;;
55292;SDS011;41157;53.560;10.098;2023-03-21T12:38:21;26.97;;;18.10;;
55292;SDS011;41157;53.560;10.098;2023-03-21T12:41:04;26.33;;;18.27;;
55292;SDS011;41157;53.560;10.098;2023-03-21T12:43:38;23.97;;;16.53;;
55292;SDS011;41157;53.560;10.098;2023-03-21T12:46:08;25.07;;;17.07;;
55292;SDS011;41157;53.560;10.098;2023-03-21T12:48:38;21.00;;;16.00;;
55292;SDS011;41157;53.560;10.098;2023-03-21T12:51:09;18.63;;;13.83;;
55292;SDS011;41157;53.560;10.098;2023-03-21T12:53:47;16.57;;;11.70;;
55292;SDS011;41157;53.560;10.098;2023-03-21T12:56:18;13.87;;;11.20;;
55292;SDS011;41157;53.560;10.098;2023-03-21T12:58:49;15.17;;;10.87;;
55292;SDS011;41157;53.560;10.098;2023-03-21T13:01:18;15.73;;;12.03;;
55292;SDS011;41157;53.560;10.098;2023-03-21T13:03:47;13.33;;;11.77;;
55292;SDS011;41157;53.560;10.098;2023-03-21T13:06:16;12.20;;;10.80;;
55292;SDS011;41157;53.560;10.098;2023-03-21T13:08:47;15.73;;;11.33;;
55292;SDS011;41157;53.560;10.098;2023-03-21T13:11:16;12.03;;;10.60;;
55292;SDS011;41157;53.560;10.098;2023-03-21T13:13:46;14.60;;;11.30;;
55292;SDS011;41157;53.560;10.098;2023-03-21T13:16:15;16.07;;;11.33;;
55292;SDS011;41157;53.560;10.098;2023-03-21T13:18:48;13.33;;;11.40;;
55292;SDS011;41157;53.560;10.098;2023-03-21T13:21:21;15.57;;;11.37;;
55292;SDS011;41157;53.560;10.098;2023-03-21T13:23:59;12.67;;;10.83;;
55292;SDS011;41157;53.560;10.098;2023-03-21T13:26:37;16.37;;;11.87;;
55292;SDS011;41157;53.560;10.098;2023-03-21T13:29:11;17.47;;;12.17;;
55292;SDS011;41157;53.560;10.098;2023-03-21T13:31:48;14.20;;;11.60;;
55292;SDS011;41157;53.560;10.098;2023-03-21T13:34:16;20.10;;;11.93;;
55292;SDS011;41157;53.560;10.098;2023-03-21T13:36:45;13.53;;;11.53;;
55292;SDS011;41157;53.560;10.098;2023-03-21T13:39:15;16.50;;;11.90;;
55292;SDS011;41157;53.560;10.098;2023-03-21T13:41:43;13.60;;;11.40;;
55292;SDS011;41157;53.560;10.098;2023-03-21T13:44:17;12.73;;;11.43;;
55292;SDS011;41157;53.560;10.098;2023-03-21T13:46:52;12.67;;;10.87;;
55292;SDS011;41157;53.560;10.098;2023-03-21T13:49:27;13.67;;;11.53;;
55292;SDS011;41157;53.560;10.098;2023-03-21T13:51:56;13.77;;;11.97;;
55292;SDS011;41157;53.560;10.098;2023-03-21T13:54:29;14.83;;;12.00;;
55292;SDS011;41157;53.560;10.098;2023-03-21T13:57:19;15.53;;;12.67;;
55292;SDS011;41157;53.560;10.098;2023-03-21T13:59:47;13.80;;;11.90;;
55292;SDS011;41157;53.560;10.098;2023-03-21T14:02:27;14.80;;;11.73;;
55292;SDS011;41157;53.560;10.098;2023-03-21T14:04:56;15.23;;;11.70;;
55292;SDS011;41157;53.560;10.098;2023-03-21T14:07:25;15.03;;;12.10;;
55292;SDS011;41157;53.560;10.098;2023-03-21T14:09:53;16.23;;;11.00;;
55292;SDS011;41157;53.560;10.098;2023-03-21T14:12:21;15.20;;;10.90;;
55292;SDS011;41157;53.560;10.098;2023-03-21T14:14:50;13.70;;;10.77;;
55292;SDS011;41157;53.560;10.098;2023-03-21T14:17:21;13.17;;;11.10;;
55292;SDS011;41157;53.560;10.098;2023-03-21T14:19:51;14.27;;;9.83;;
55292;SDS011;41157;53.560;10.098;2023-03-21T14:22:19;14.47;;;10.93;;
55292;SDS011;41157;53.560;10.098;2023-03-21T14:24:46;13.10;;;10.47;;
55292;SDS011;41157;53.560;10.098;2023-03-21T14:27:13;13.73;;;11.10;;